sensor_id;sensor_type;location;lat;lon;timestamp;P1;durP1;ratioP1;P2;durP2;ratioP2
7707;SDS011;3896;48.758;8.888;2022-07-29T00:00:01;5.10;;;4.57;;
7707;SDS011;3896;48.758;8.888;2022-07-29T00:02:27;7.37;;;4.10;;
7707;SDS011;3896;48.758;8.888;2022-07-29T00:04:53;4.60;;;4.13;;
7707;SDS011;3896;48.758;8.888;2022-07-29T00:07:19;5.73;;;3.83;;
7707;SDS011;3896;48.758;8.888;2022-07-29T00:09:44;5.60;;;4.27;;
7707;SDS011;3896;48.758;8.888;2022-07-29T00:12:10;4.77;;;4.17;;
7707;SDS011;3896;48.758;8.888;2022-07-29T00:14:36;4.37;;;3.97;;
7707;SDS011;3896;48.758;8.888;2022-07-29T00:17:01;4.97;;;3.80;;
7707;SDS011;3896;48.758;8.888;2022-07-29T00:19:27;4.23;;;3.80;;
7707;SDS011;3896;48.758;8.888;2022-07-29T00:21:53;6.03;;;3.80;;
7707;SDS011;3896;48.758;8.888;2022-07-29T00:24:18;4.90;;;4.10;;
7707;SDS011;3896;48.758;8.888;2022-07-29T00:26:44;4.77;;;4.37;;
7707;SDS011;3896;48.758;8.888;2022-07-29T00:29:09;4.47;;;4.13;;
7707;SDS011;3896;48.758;8.888;2022-07-29T00:31:35;4.47;;;4.07;;
7707;SDS011;3896;48.758;8.888;2022-07-29T00:34:00;4.10;;;3.80;;
7707;SDS011;3896;48.758;8.888;2022-07-29T00:36:27;4.67;;;3.97;;
7707;SDS011;3896;48.758;8.888;2022-07-29T00:38:52;4.73;;;4.03;;
7707;SDS011;3896;48.758;8.888;2022-07-29T00:41:18;6.60;;;3.90;;
7707;SDS011;3896;48.758;8.888;2022-07-29T00:43:44;5.00;;;3.93;;
7707;SDS011;3896;48.758;8.888;2022-07-29T00:46:10;6.20;;;3.73;;
7707;SDS011;3896;48.758;8.888;2022-07-29T00:48:36;4.67;;;4.10;;
7707;SDS011;3896;48.758;8.888;2022-07-29T00:51:03;5.83;;;4.13;;
7707;SDS011;3896;48.758;8.888;2022-07-29T00:53:30;4.33;;;4.03;;
7707;SDS011;3896;48.758;8.888;2022-07-29T00:55:56;4.40;;;4.10;;
7707;SDS011;3896;48.758;8.888;2022-07-29T00:58:23;4.73;;;4.33;;
7707;SDS011;3896;48.758;8.888;2022-07-29T01:00:49;5.37;;;4.57;;
7707;SDS011;3896;48.758;8.888;2022-07-29T01:03:15;5.23;;;4.63;;
7707;SDS011;3896;48.758;8.888;2022-07-29T01:05:41;5.23;;;4.70;;
7707;SDS011;3896;48.758;8.888;2022-07-29T01:08:09;4.80;;;4.40;;
7707;SDS011;3896;48.758;8.888;2022-07-29T01:10:37;5.03;;;4.47;;
7707;SDS011;3896;48.758;8.888;2022-07-29T01:13:04;5.13;;;4.20;;
7707;SDS011;3896;48.758;8.888;2022-07-29T01:15:30;4.73;;;4.23;;
7707;SDS011;3896;48.758;8.888;2022-07-29T01:20:53;5.20;;;4.70;;
7707;SDS011;3896;48.758;8.888;2022-07-29T01:31:33;4.97;;;4.53;;
7707;SDS011;3896;48.758;8.888;2022-07-29T01:34:07;5.37;;;4.87;;
7707;SDS011;3896;48.758;8.888;2022-07-29T01:36:47;5.33;;;4.40;;
7707;SDS011;3896;48.758;8.888;2022-07-29T01:39:30;5.00;;;4.50;;
7707;SDS011;3896;48.758;8.888;2022-07-29T01:42:09;4.53;;;4.20;;
7707;SDS011;3896;48.758;8.888;2022-07-29T01:44:54;4.43;;;4.03;;
7707;SDS011;3896;48.758;8.888;2022-07-29T01:47:25;3.77;;;3.47;;
7707;SDS011;3896;48.758;8.888;2022-07-29T01:49:56;4.30;;;4.00;;
7707;SDS011;3896;48.758;8.888;2022-07-29T01:52:31;4.53;;;3.73;;
7707;SDS011;3896;48.758;8.888;2022-07-29T01:55:03;4.20;;;3.80;;
7707;SDS011;3896;48.758;8.888;2022-07-29T01:57:33;3.50;;;3.30;;
7707;SDS011;3896;48.758;8.888;2022-07-29T02:00:01;5.73;;;3.60;;
7707;SDS011;3896;48.758;8.888;2022-07-29T02:02:29;6.07;;;3.57;;
7707;SDS011;3896;48.758;8.888;2022-07-29T02:04:56;4.13;;;3.80;;
7707;SDS011;3896;48.758;8.888;2022-07-29T02:07:23;3.70;;;3.50;;
7707;SDS011;3896;48.758;8.888;2022-07-29T02:09:53;4.83;;;4.03;;
7707;SDS011;3896;48.758;8.888;2022-07-29T02:12:20;4.47;;;4.07;;
7707;SDS011;3896;48.758;8.888;2022-07-29T02:14:50;4.17;;;3.87;;
7707;SDS011;3896;48.758;8.888;2022-07-29T02:17:22;4.00;;;3.70;;
7707;SDS011;3896;48.758;8.888;2022-07-29T02:19:51;3.60;;;3.33;;
7707;SDS011;3896;48.758;8.888;2022-07-29T02:22:20;4.87;;;4.00;;
7707;SDS011;3896;48.758;8.888;2022-07-29T02:24:47;5.73;;;4.13;;
7707;SDS011;3896;48.758;8.888;2022-07-29T02:27:15;4.50;;;4.10;;
7707;SDS011;3896;48.758;8.888;2022-07-29T02:29:43;4.27;;;3.87;;
7707;SDS011;3896;48.758;8.888;2022-07-29T02:32:12;4.30;;;4.00;;
7707;SDS011;3896;48.758;8.888;2022-07-29T02:34:39;4.57;;;3.90;;
7707;SDS011;3896;48.758;8.888;2022-07-29T02:37:07;4.13;;;3.73;;
7707;SDS011;3896;48.758;8.888;2022-07-29T02:39:34;3.93;;;3.63;;
7707;SDS011;3896;48.758;8.888;2022-07-29T02:42:03;4.13;;;3.73;;
7707;SDS011;3896;48.758;8.888;2022-07-29T02:44:32;4.50;;;4.10;;
7707;SDS011;3896;48.758;8.888;2022-07-29T02:47:04;4.43;;;4.13;;
7707;SDS011;3896;48.758;8.888;2022-07-29T02:49:41;19.30;;;12.97;;
7707;SDS011;3896;48.758;8.888;2022-07-29T02:52:21;12.80;;;10.43;;
7707;SDS011;3896;48.758;8.888;2022-07-29T02:54:55;9.67;;;7.73;;
7707;SDS011;3896;48.758;8.888;2022-07-29T02:57:29;4.87;;;4.37;;
7707;SDS011;3896;48.758;8.888;2022-07-29T03:00:00;4.83;;;4.30;;
7707;SDS011;3896;48.758;8.888;2022-07-29T03:02:33;13.73;;;4.53;;
7707;SDS011;3896;48.758;8.888;2022-07-29T03:05:01;4.77;;;4.10;;
7707;SDS011;3896;48.758;8.888;2022-07-29T03:07:28;5.67;;;4.07;;
7707;SDS011;3896;48.758;8.888;2022-07-29T03:09:54;4.17;;;3.50;;
7707;SDS011;3896;48.758;8.888;2022-07-29T03:12:21;4.53;;;3.97;;
7707;SDS011;3896;48.758;8.888;2022-07-29T03:14:47;3.80;;;3.50;;
7707;SDS011;3896;48.758;8.888;2022-07-29T03:17:13;3.83;;;3.50;;
7707;SDS011;3896;48.758;8.888;2022-07-29T03:19:40;3.60;;;3.30;;
7707;SDS011;3896;48.758;8.888;2022-07-29T03:22:06;6.37;;;3.70;;
7707;SDS011;3896;48.758;8.888;2022-07-29T03:24:32;4.10;;;3.70;;
7707;SDS011;3896;48.758;8.888;2022-07-29T03:27:00;3.77;;;3.43;;
7707;SDS011;3896;48.758;8.888;2022-07-29T03:29:26;4.03;;;3.73;;
7707;SDS011;3896;48.758;8.888;2022-07-29T03:31:52;3.40;;;3.10;;
7707;SDS011;3896;48.758;8.888;2022-07-29T03:34:18;3.60;;;3.23;;
7707;SDS011;3896;48.758;8.888;2022-07-29T03:36:44;4.00;;;3.57;;
7707;SDS011;3896;48.758;8.888;2022-07-29T03:39:09;3.50;;;3.13;;
7707;SDS011;3896;48.758;8.888;2022-07-29T03:41:37;3.97;;;3.57;;
7707;SDS011;3896;48.758;8.888;2022-07-29T03:44:06;4.83;;;3.83;;
7707;SDS011;3896;48.758;8.888;2022-07-29T03:46:33;4.13;;;3.73;;
7707;SDS011;3896;48.758;8.888;2022-07-29T03:49:02;3.60;;;3.30;;
7707;SDS011;3896;48.758;8.888;2022-07-29T03:51:29;4.27;;;3.87;;
7707;SDS011;3896;48.758;8.888;2022-07-29T03:53:56;4.87;;;3.57;;
7707;SDS011;3896;48.758;8.888;2022-07-29T03:56:22;3.90;;;3.60;;
7707;SDS011;3896;48.758;8.888;2022-07-29T03:58:49;4.10;;;3.50;;
7707;SDS011;3896;48.758;8.888;2022-07-29T04:01:16;3.93;;;3.63;;
7707;SDS011;3896;48.758;8.888;2022-07-29T04:03:43;3.83;;;3.47;;
7707;SDS011;3896;48.758;8.888;2022-07-29T04:06:12;4.63;;;4.17;;
7707;SDS011;3896;48.758;8.888;2022-07-29T04:08:38;5.67;;;4.20;;
7707;SDS011;3896;48.758;8.888;2022-07-29T04:11:04;4.23;;;3.93;;
7707;SDS011;3896;48.758;8.888;2022-07-29T04:13:30;3.53;;;3.23;;
7707;SDS011;3896;48.758;8.888;2022-07-29T04:15:56;4.40;;;3.53;;
7707;SDS011;3896;48.758;8.888;2022-07-29T04:18:23;3.83;;;3.47;;
7707;SDS011;3896;48.758;8.888;2022-07-29T04:20:48;4.70;;;4.30;;
7707;SDS011;3896;48.758;8.888;2022-07-29T04:23:14;4.60;;;4.27;;
7707;SDS011;3896;48.758;8.888;2022-07-29T04:25:40;4.13;;;3.80;;
7707;SDS011;3896;48.758;8.888;2022-07-29T04:28:07;4.73;;;4.30;;
7707;SDS011;3896;48.758;8.888;2022-07-29T04:30:33;4.73;;;4.33;;
7707;SDS011;3896;48.758;8.888;2022-07-29T04:33:01;4.80;;;4.40;;
7707;SDS011;3896;48.758;8.888;2022-07-29T04:35:28;4.53;;;4.20;;
7707;SDS011;3896;48.758;8.888;2022-07-29T04:37:54;4.80;;;4.40;;
7707;SDS011;3896;48.758;8.888;2022-07-29T04:40:20;4.73;;;4.33;;
7707;SDS011;3896;48.758;8.888;2022-07-29T04:42:46;4.70;;;4.30;;
7707;SDS011;3896;48.758;8.888;2022-07-29T04:45:11;4.87;;;4.47;;
7707;SDS011;3896;48.758;8.888;2022-07-29T04:47:37;5.13;;;4.53;;
7707;SDS011;3896;48.758;8.888;2022-07-29T04:50:02;4.80;;;4.37;;
7707;SDS011;3896;48.758;8.888;2022-07-29T04:52:30;7.70;;;5.20;;
7707;SDS011;3896;48.758;8.888;2022-07-29T04:54:55;5.07;;;4.57;;
7707;SDS011;3896;48.758;8.888;2022-07-29T04:57:21;5.90;;;5.40;;
7707;SDS011;3896;48.758;8.888;2022-07-29T04:59:46;6.67;;;5.10;;
7707;SDS011;3896;48.758;8.888;2022-07-29T05:02:12;5.27;;;4.77;;
7707;SDS011;3896;48.758;8.888;2022-07-29T05:04:37;5.37;;;4.87;;
7707;SDS011;3896;48.758;8.888;2022-07-29T05:07:03;5.70;;;4.80;;
7707;SDS011;3896;48.758;8.888;2022-07-29T05:09:29;5.37;;;4.77;;
7707;SDS011;3896;48.758;8.888;2022-07-29T05:11:55;5.77;;;4.80;;
7707;SDS011;3896;48.758;8.888;2022-07-29T05:14:20;6.10;;;4.83;;
7707;SDS011;3896;48.758;8.888;2022-07-29T05:16:46;5.27;;;4.80;;
7707;SDS011;3896;48.758;8.888;2022-07-29T05:19:11;5.60;;;5.10;;
7707;SDS011;3896;48.758;8.888;2022-07-29T05:21:37;5.60;;;4.80;;
7707;SDS011;3896;48.758;8.888;2022-07-29T05:24:03;4.83;;;4.43;;
7707;SDS011;3896;48.758;8.888;2022-07-29T05:26:29;8.70;;;5.53;;
7707;SDS011;3896;48.758;8.888;2022-07-29T05:28:54;5.00;;;4.60;;
7707;SDS011;3896;48.758;8.888;2022-07-29T05:31:20;5.90;;;5.27;;
7707;SDS011;3896;48.758;8.888;2022-07-29T05:33:46;5.00;;;4.50;;
7707;SDS011;3896;48.758;8.888;2022-07-29T05:36:11;5.73;;;4.83;;
7707;SDS011;3896;48.758;8.888;2022-07-29T05:38:37;5.40;;;4.70;;
7707;SDS011;3896;48.758;8.888;2022-07-29T05:41:03;4.43;;;4.13;;
7707;SDS011;3896;48.758;8.888;2022-07-29T05:43:29;5.90;;;5.30;;
7707;SDS011;3896;48.758;8.888;2022-07-29T05:45:55;5.83;;;4.43;;
7707;SDS011;3896;48.758;8.888;2022-07-29T05:48:21;5.70;;;5.07;;
7707;SDS011;3896;48.758;8.888;2022-07-29T05:50:47;6.63;;;5.10;;
7707;SDS011;3896;48.758;8.888;2022-07-29T05:53:13;5.50;;;5.07;;
7707;SDS011;3896;48.758;8.888;2022-07-29T05:55:39;5.23;;;4.83;;
7707;SDS011;3896;48.758;8.888;2022-07-29T05:58:04;5.70;;;5.30;;
7707;SDS011;3896;48.758;8.888;2022-07-29T06:00:30;8.07;;;5.50;;
7707;SDS011;3896;48.758;8.888;2022-07-29T06:02:55;5.33;;;4.60;;
7707;SDS011;3896;48.758;8.888;2022-07-29T06:05:21;7.33;;;5.07;;
7707;SDS011;3896;48.758;8.888;2022-07-29T06:07:47;5.27;;;4.77;;
7707;SDS011;3896;48.758;8.888;2022-07-29T06:10:13;5.47;;;4.97;;
7707;SDS011;3896;48.758;8.888;2022-07-29T06:12:39;5.30;;;4.43;;
7707;SDS011;3896;48.758;8.888;2022-07-29T06:15:04;5.50;;;4.63;;
7707;SDS011;3896;48.758;8.888;2022-07-29T06:17:30;5.07;;;4.67;;
7707;SDS011;3896;48.758;8.888;2022-07-29T06:19:56;5.10;;;4.70;;
7707;SDS011;3896;48.758;8.888;2022-07-29T06:22:22;6.43;;;4.93;;
7707;SDS011;3896;48.758;8.888;2022-07-29T06:24:48;6.73;;;5.13;;
7707;SDS011;3896;48.758;8.888;2022-07-29T06:27:14;4.80;;;4.37;;
7707;SDS011;3896;48.758;8.888;2022-07-29T06:29:41;4.23;;;3.83;;
7707;SDS011;3896;48.758;8.888;2022-07-29T06:32:07;5.00;;;4.60;;
7707;SDS011;3896;48.758;8.888;2022-07-29T06:34:34;4.50;;;4.13;;
7707;SDS011;3896;48.758;8.888;2022-07-29T06:37:00;5.33;;;4.83;;
7707;SDS011;3896;48.758;8.888;2022-07-29T06:39:30;5.50;;;4.50;;
7707;SDS011;3896;48.758;8.888;2022-07-29T06:41:55;5.67;;;5.07;;
7707;SDS011;3896;48.758;8.888;2022-07-29T06:44:21;4.67;;;4.23;;
7707;SDS011;3896;48.758;8.888;2022-07-29T06:46:47;4.70;;;4.27;;
7707;SDS011;3896;48.758;8.888;2022-07-29T06:49:14;6.23;;;5.13;;
7707;SDS011;3896;48.758;8.888;2022-07-29T06:51:40;6.67;;;4.93;;
7707;SDS011;3896;48.758;8.888;2022-07-29T06:54:06;5.53;;;5.03;;
7707;SDS011;3896;48.758;8.888;2022-07-29T06:56:32;6.30;;;5.20;;
7707;SDS011;3896;48.758;8.888;2022-07-29T06:59:01;4.93;;;4.57;;
7707;SDS011;3896;48.758;8.888;2022-07-29T07:01:27;4.80;;;4.30;;
7707;SDS011;3896;48.758;8.888;2022-07-29T07:03:53;4.90;;;4.47;;
7707;SDS011;3896;48.758;8.888;2022-07-29T07:06:18;4.70;;;4.30;;
7707;SDS011;3896;48.758;8.888;2022-07-29T07:08:44;4.57;;;4.17;;
7707;SDS011;3896;48.758;8.888;2022-07-29T07:11:10;5.97;;;4.83;;
7707;SDS011;3896;48.758;8.888;2022-07-29T07:13:36;5.47;;;4.73;;
7707;SDS011;3896;48.758;8.888;2022-07-29T07:16:02;5.77;;;4.63;;
7707;SDS011;3896;48.758;8.888;2022-07-29T07:18:29;5.10;;;4.70;;
7707;SDS011;3896;48.758;8.888;2022-07-29T07:20:55;9.07;;;4.00;;
7707;SDS011;3896;48.758;8.888;2022-07-29T07:23:21;4.57;;;4.17;;
7707;SDS011;3896;48.758;8.888;2022-07-29T07:25:47;6.83;;;5.03;;
7707;SDS011;3896;48.758;8.888;2022-07-29T07:28:12;5.47;;;3.97;;
7707;SDS011;3896;48.758;8.888;2022-07-29T07:30:38;5.07;;;4.67;;
7707;SDS011;3896;48.758;8.888;2022-07-29T07:33:04;5.63;;;5.13;;
7707;SDS011;3896;48.758;8.888;2022-07-29T07:35:30;4.93;;;4.47;;
7707;SDS011;3896;48.758;8.888;2022-07-29T07:37:55;5.37;;;4.80;;
7707;SDS011;3896;48.758;8.888;2022-07-29T07:40:21;4.90;;;4.40;;
7707;SDS011;3896;48.758;8.888;2022-07-29T07:42:47;5.60;;;5.10;;
7707;SDS011;3896;48.758;8.888;2022-07-29T07:45:13;5.30;;;3.67;;
7707;SDS011;3896;48.758;8.888;2022-07-29T07:47:39;4.10;;;3.50;;
7707;SDS011;3896;48.758;8.888;2022-07-29T07:50:05;3.80;;;3.47;;
7707;SDS011;3896;48.758;8.888;2022-07-29T07:52:32;4.10;;;3.60;;
7707;SDS011;3896;48.758;8.888;2022-07-29T07:54:58;5.93;;;3.67;;
7707;SDS011;3896;48.758;8.888;2022-07-29T07:57:24;5.60;;;4.20;;
7707;SDS011;3896;48.758;8.888;2022-07-29T07:59:50;4.97;;;3.73;;
7707;SDS011;3896;48.758;8.888;2022-07-29T08:02:15;6.87;;;4.00;;
7707;SDS011;3896;48.758;8.888;2022-07-29T08:04:41;5.93;;;3.93;;
7707;SDS011;3896;48.758;8.888;2022-07-29T08:07:07;7.20;;;4.10;;
7707;SDS011;3896;48.758;8.888;2022-07-29T08:09:33;4.17;;;3.80;;
7707;SDS011;3896;48.758;8.888;2022-07-29T08:11:59;4.00;;;3.70;;
7707;SDS011;3896;48.758;8.888;2022-07-29T08:14:28;3.93;;;3.63;;
7707;SDS011;3896;48.758;8.888;2022-07-29T08:16:54;4.03;;;3.63;;
7707;SDS011;3896;48.758;8.888;2022-07-29T08:19:23;3.67;;;3.40;;
7707;SDS011;3896;48.758;8.888;2022-07-29T08:21:49;3.93;;;3.60;;
7707;SDS011;3896;48.758;8.888;2022-07-29T08:24:14;5.40;;;3.63;;
7707;SDS011;3896;48.758;8.888;2022-07-29T08:26:58;4.20;;;3.80;;
7707;SDS011;3896;48.758;8.888;2022-07-29T08:29:24;4.40;;;3.57;;
7707;SDS011;3896;48.758;8.888;2022-07-29T08:31:50;6.97;;;3.43;;
7707;SDS011;3896;48.758;8.888;2022-07-29T08:34:15;3.90;;;3.47;;
7707;SDS011;3896;48.758;8.888;2022-07-29T08:36:41;6.67;;;3.47;;
7707;SDS011;3896;48.758;8.888;2022-07-29T08:39:07;5.00;;;3.77;;
7707;SDS011;3896;48.758;8.888;2022-07-29T08:41:32;5.67;;;4.20;;
7707;SDS011;3896;48.758;8.888;2022-07-29T08:43:58;5.07;;;3.87;;
7707;SDS011;3896;48.758;8.888;2022-07-29T08:46:24;4.07;;;3.60;;
7707;SDS011;3896;48.758;8.888;2022-07-29T08:48:49;3.13;;;2.90;;
7707;SDS011;3896;48.758;8.888;2022-07-29T08:51:16;5.47;;;3.80;;
7707;SDS011;3896;48.758;8.888;2022-07-29T08:53:43;4.83;;;3.37;;
7707;SDS011;3896;48.758;8.888;2022-07-29T08:56:14;4.47;;;3.50;;
7707;SDS011;3896;48.758;8.888;2022-07-29T08:58:44;4.53;;;3.20;;
7707;SDS011;3896;48.758;8.888;2022-07-29T09:01:13;4.47;;;3.23;;
7707;SDS011;3896;48.758;8.888;2022-07-29T09:03:45;5.80;;;3.90;;
7707;SDS011;3896;48.758;8.888;2022-07-29T09:06:15;7.50;;;3.70;;
7707;SDS011;3896;48.758;8.888;2022-07-29T09:08:42;4.17;;;3.73;;
7707;SDS011;3896;48.758;8.888;2022-07-29T09:11:09;4.20;;;3.80;;
7707;SDS011;3896;48.758;8.888;2022-07-29T09:13:36;4.20;;;3.80;;
7707;SDS011;3896;48.758;8.888;2022-07-29T09:16:02;5.13;;;3.57;;
7707;SDS011;3896;48.758;8.888;2022-07-29T09:18:41;4.33;;;3.90;;
7707;SDS011;3896;48.758;8.888;2022-07-29T09:21:09;3.90;;;3.53;;
7707;SDS011;3896;48.758;8.888;2022-07-29T09:24:04;3.93;;;3.63;;
7707;SDS011;3896;48.758;8.888;2022-07-29T09:26:41;4.20;;;3.43;;
7707;SDS011;3896;48.758;8.888;2022-07-29T09:29:08;4.03;;;3.63;;
7707;SDS011;3896;48.758;8.888;2022-07-29T09:31:39;5.87;;;4.20;;
7707;SDS011;3896;48.758;8.888;2022-07-29T09:34:10;3.37;;;2.90;;
7707;SDS011;3896;48.758;8.888;2022-07-29T09:36:38;6.70;;;3.70;;
7707;SDS011;3896;48.758;8.888;2022-07-29T09:39:08;3.93;;;3.50;;
7707;SDS011;3896;48.758;8.888;2022-07-29T09:41:48;3.73;;;3.43;;
7707;SDS011;3896;48.758;8.888;2022-07-29T09:44:17;4.60;;;3.80;;
7707;SDS011;3896;48.758;8.888;2022-07-29T09:46:56;4.23;;;3.83;;
7707;SDS011;3896;48.758;8.888;2022-07-29T09:49:35;4.47;;;3.47;;
7707;SDS011;3896;48.758;8.888;2022-07-29T09:52:15;3.75;;;3.45;;
7707;SDS011;3896;48.758;8.888;2022-07-29T09:54:41;5.57;;;3.60;;
7707;SDS011;3896;48.758;8.888;2022-07-29T09:57:07;3.63;;;3.27;;
7707;SDS011;3896;48.758;8.888;2022-07-29T10:00:07;4.45;;;3.30;;
7707;SDS011;3896;48.758;8.888;2022-07-29T10:02:36;5.33;;;4.00;;
7707;SDS011;3896;48.758;8.888;2022-07-29T10:05:03;7.50;;;3.63;;
7707;SDS011;3896;48.758;8.888;2022-07-29T10:10:09;8.75;;;3.60;;
7707;SDS011;3896;48.758;8.888;2022-07-29T10:12:40;5.50;;;3.83;;
7707;SDS011;3896;48.758;8.888;2022-07-29T10:15:14;4.13;;;3.73;;
7707;SDS011;3896;48.758;8.888;2022-07-29T10:17:41;8.90;;;4.23;;
7707;SDS011;3896;48.758;8.888;2022-07-29T10:20:07;6.70;;;4.38;;
7707;SDS011;3896;48.758;8.888;2022-07-29T10:22:33;5.13;;;4.50;;
7707;SDS011;3896;48.758;8.888;2022-07-29T10:24:59;8.10;;;4.97;;
7707;SDS011;3896;48.758;8.888;2022-07-29T10:27:25;8.73;;;4.70;;
7707;SDS011;3896;48.758;8.888;2022-07-29T10:29:50;4.63;;;4.23;;
7707;SDS011;3896;48.758;8.888;2022-07-29T10:40:45;19.00;;;9.10;;
7707;SDS011;3896;48.758;8.888;2022-07-29T10:43:50;21.17;;;10.23;;
7707;SDS011;3896;48.758;8.888;2022-07-29T10:46:18;11.23;;;6.37;;
7707;SDS011;3896;48.758;8.888;2022-07-29T10:51:51;13.63;;;7.90;;
7707;SDS011;3896;48.758;8.888;2022-07-29T10:57:10;8.20;;;5.43;;
7707;SDS011;3896;48.758;8.888;2022-07-29T10:59:49;10.20;;;5.60;;
7707;SDS011;3896;48.758;8.888;2022-07-29T11:05:07;9.13;;;5.87;;
7707;SDS011;3896;48.758;8.888;2022-07-29T11:07:35;7.87;;;6.40;;
7707;SDS011;3896;48.758;8.888;2022-07-29T11:10:23;7.20;;;5.13;;
7707;SDS011;3896;48.758;8.888;2022-07-29T11:12:48;4.83;;;4.17;;
7707;SDS011;3896;48.758;8.888;2022-07-29T11:15:16;4.83;;;4.03;;
7707;SDS011;3896;48.758;8.888;2022-07-29T11:20:34;4.53;;;3.83;;
7707;SDS011;3896;48.758;8.888;2022-07-29T11:23:19;4.40;;;4.00;;
7707;SDS011;3896;48.758;8.888;2022-07-29T11:26:12;6.13;;;3.97;;
7707;SDS011;3896;48.758;8.888;2022-07-29T11:31:40;5.13;;;3.60;;
7707;SDS011;3896;48.758;8.888;2022-07-29T11:34:28;4.50;;;3.57;;
7707;SDS011;3896;48.758;8.888;2022-07-29T11:39:39;4.90;;;4.13;;
7707;SDS011;3896;48.758;8.888;2022-07-29T11:44:53;4.83;;;4.00;;
7707;SDS011;3896;48.758;8.888;2022-07-29T11:47:21;10.13;;;4.80;;
7707;SDS011;3896;48.758;8.888;2022-07-29T11:49:47;5.87;;;4.67;;
7707;SDS011;3896;48.758;8.888;2022-07-29T11:52:15;4.50;;;4.10;;
7707;SDS011;3896;48.758;8.888;2022-07-29T11:54:41;4.90;;;4.50;;
7707;SDS011;3896;48.758;8.888;2022-07-29T11:57:11;5.10;;;4.17;;
7707;SDS011;3896;48.758;8.888;2022-07-29T11:59:41;4.57;;;4.13;;
7707;SDS011;3896;48.758;8.888;2022-07-29T12:02:07;4.23;;;3.83;;
7707;SDS011;3896;48.758;8.888;2022-07-29T12:04:34;4.47;;;4.10;;
7707;SDS011;3896;48.758;8.888;2022-07-29T12:07:16;5.07;;;4.10;;
7707;SDS011;3896;48.758;8.888;2022-07-29T12:09:52;6.67;;;4.87;;
7707;SDS011;3896;48.758;8.888;2022-07-29T12:12:18;5.57;;;4.43;;
7707;SDS011;3896;48.758;8.888;2022-07-29T12:14:45;4.80;;;4.23;;
7707;SDS011;3896;48.758;8.888;2022-07-29T12:19:57;4.40;;;4.00;;
7707;SDS011;3896;48.758;8.888;2022-07-29T12:22:25;4.43;;;3.97;;
7707;SDS011;3896;48.758;8.888;2022-07-29T12:24:52;4.57;;;3.97;;
7707;SDS011;3896;48.758;8.888;2022-07-29T12:27:19;6.20;;;4.30;;
7707;SDS011;3896;48.758;8.888;2022-07-29T12:29:45;5.73;;;4.10;;
7707;SDS011;3896;48.758;8.888;2022-07-29T12:32:21;8.40;;;4.40;;
7707;SDS011;3896;48.758;8.888;2022-07-29T12:34:47;4.43;;;4.03;;
7707;SDS011;3896;48.758;8.888;2022-07-29T12:37:12;5.40;;;4.40;;
7707;SDS011;3896;48.758;8.888;2022-07-29T12:39:38;6.93;;;4.83;;
7707;SDS011;3896;48.758;8.888;2022-07-29T12:42:13;5.00;;;4.50;;
7707;SDS011;3896;48.758;8.888;2022-07-29T12:44:47;4.90;;;4.50;;
7707;SDS011;3896;48.758;8.888;2022-07-29T12:47:15;8.57;;;4.87;;
7707;SDS011;3896;48.758;8.888;2022-07-29T12:49:42;4.10;;;3.70;;
7707;SDS011;3896;48.758;8.888;2022-07-29T12:54:54;6.97;;;4.23;;
7707;SDS011;3896;48.758;8.888;2022-07-29T12:57:20;5.47;;;4.00;;
7707;SDS011;3896;48.758;8.888;2022-07-29T12:59:58;4.40;;;4.00;;
7707;SDS011;3896;48.758;8.888;2022-07-29T13:02:33;6.47;;;4.03;;
7707;SDS011;3896;48.758;8.888;2022-07-29T13:04:59;6.10;;;4.10;;
7707;SDS011;3896;48.758;8.888;2022-07-29T13:07:26;5.77;;;4.13;;
7707;SDS011;3896;48.758;8.888;2022-07-29T13:15:33;4.53;;;3.80;;
7707;SDS011;3896;48.758;8.888;2022-07-29T13:18:03;4.47;;;3.40;;
7707;SDS011;3896;48.758;8.888;2022-07-29T13:20:30;3.00;;;2.80;;
7707;SDS011;3896;48.758;8.888;2022-07-29T13:22:56;4.00;;;3.60;;
7707;SDS011;3896;48.758;8.888;2022-07-29T13:25:30;4.80;;;4.07;;
7707;SDS011;3896;48.758;8.888;2022-07-29T13:27:57;4.70;;;3.33;;
7707;SDS011;3896;48.758;8.888;2022-07-29T13:30:23;4.33;;;3.23;;
7707;SDS011;3896;48.758;8.888;2022-07-29T13:32:51;3.87;;;3.30;;
7707;SDS011;3896;48.758;8.888;2022-07-29T13:35:17;3.80;;;3.43;;
7707;SDS011;3896;48.758;8.888;2022-07-29T13:37:44;3.83;;;3.17;;
7707;SDS011;3896;48.758;8.888;2022-07-29T13:40:10;5.27;;;3.27;;
7707;SDS011;3896;48.758;8.888;2022-07-29T13:42:36;4.10;;;3.70;;
7707;SDS011;3896;48.758;8.888;2022-07-29T13:45:02;4.07;;;3.70;;
7707;SDS011;3896;48.758;8.888;2022-07-29T13:47:29;3.90;;;3.40;;
7707;SDS011;3896;48.758;8.888;2022-07-29T13:49:55;5.57;;;3.87;;
7707;SDS011;3896;48.758;8.888;2022-07-29T13:52:21;4.53;;;4.07;;
7707;SDS011;3896;48.758;8.888;2022-07-29T13:54:47;4.40;;;3.50;;
7707;SDS011;3896;48.758;8.888;2022-07-29T13:57:13;4.47;;;4.07;;
7707;SDS011;3896;48.758;8.888;2022-07-29T13:59:41;4.77;;;3.73;;
7707;SDS011;3896;48.758;8.888;2022-07-29T14:02:08;4.10;;;3.70;;
7707;SDS011;3896;48.758;8.888;2022-07-29T14:04:35;9.03;;;3.83;;
7707;SDS011;3896;48.758;8.888;2022-07-29T14:07:01;6.93;;;4.80;;
7707;SDS011;3896;48.758;8.888;2022-07-29T14:09:27;5.87;;;3.70;;
7707;SDS011;3896;48.758;8.888;2022-07-29T14:11:52;4.07;;;3.63;;
7707;SDS011;3896;48.758;8.888;2022-07-29T14:14:18;3.83;;;3.43;;
7707;SDS011;3896;48.758;8.888;2022-07-29T14:16:44;5.27;;;4.10;;
7707;SDS011;3896;48.758;8.888;2022-07-29T14:19:10;5.17;;;4.10;;
7707;SDS011;3896;48.758;8.888;2022-07-29T14:21:36;5.83;;;3.67;;
7707;SDS011;3896;48.758;8.888;2022-07-29T14:24:03;5.40;;;3.93;;
7707;SDS011;3896;48.758;8.888;2022-07-29T14:26:29;3.80;;;3.50;;
7707;SDS011;3896;48.758;8.888;2022-07-29T14:28:54;4.20;;;3.80;;
7707;SDS011;3896;48.758;8.888;2022-07-29T14:31:20;6.13;;;3.63;;
7707;SDS011;3896;48.758;8.888;2022-07-29T14:33:46;5.63;;;3.63;;
7707;SDS011;3896;48.758;8.888;2022-07-29T14:36:11;3.87;;;3.47;;
7707;SDS011;3896;48.758;8.888;2022-07-29T14:38:38;4.37;;;4.07;;
7707;SDS011;3896;48.758;8.888;2022-07-29T14:41:12;5.40;;;4.03;;
7707;SDS011;3896;48.758;8.888;2022-07-29T14:43:38;6.00;;;3.70;;
7707;SDS011;3896;48.758;8.888;2022-07-29T14:46:03;5.80;;;3.70;;
7707;SDS011;3896;48.758;8.888;2022-07-29T14:48:29;4.63;;;3.33;;
7707;SDS011;3896;48.758;8.888;2022-07-29T14:50:55;3.50;;;3.20;;
7707;SDS011;3896;48.758;8.888;2022-07-29T14:53:21;4.03;;;3.70;;
7707;SDS011;3896;48.758;8.888;2022-07-29T14:55:47;4.53;;;3.53;;
7707;SDS011;3896;48.758;8.888;2022-07-29T14:58:12;5.40;;;3.43;;
7707;SDS011;3896;48.758;8.888;2022-07-29T15:00:38;4.97;;;3.70;;
7707;SDS011;3896;48.758;8.888;2022-07-29T15:03:04;4.27;;;3.60;;
7707;SDS011;3896;48.758;8.888;2022-07-29T15:05:30;6.00;;;3.67;;
7707;SDS011;3896;48.758;8.888;2022-07-29T15:07:57;5.13;;;3.73;;
7707;SDS011;3896;48.758;8.888;2022-07-29T15:10:23;4.70;;;3.63;;
7707;SDS011;3896;48.758;8.888;2022-07-29T15:12:51;4.40;;;3.70;;
7707;SDS011;3896;48.758;8.888;2022-07-29T15:15:17;3.93;;;3.60;;
7707;SDS011;3896;48.758;8.888;2022-07-29T15:17:43;3.53;;;3.20;;
7707;SDS011;3896;48.758;8.888;2022-07-29T15:20:09;4.77;;;3.67;;
7707;SDS011;3896;48.758;8.888;2022-07-29T15:22:36;4.13;;;3.73;;
7707;SDS011;3896;48.758;8.888;2022-07-29T15:25:03;4.90;;;3.97;;
7707;SDS011;3896;48.758;8.888;2022-07-29T15:27:29;4.43;;;4.13;;
7707;SDS011;3896;48.758;8.888;2022-07-29T15:29:55;4.20;;;3.80;;
7707;SDS011;3896;48.758;8.888;2022-07-29T15:32:21;4.47;;;3.70;;
7707;SDS011;3896;48.758;8.888;2022-07-29T15:34:46;3.63;;;3.30;;
7707;SDS011;3896;48.758;8.888;2022-07-29T15:37:12;4.00;;;3.70;;
7707;SDS011;3896;48.758;8.888;2022-07-29T15:39:37;5.50;;;3.53;;
7707;SDS011;3896;48.758;8.888;2022-07-29T15:42:03;5.00;;;3.83;;
7707;SDS011;3896;48.758;8.888;2022-07-29T15:44:29;5.40;;;4.53;;
7707;SDS011;3896;48.758;8.888;2022-07-29T15:46:55;5.17;;;3.57;;
7707;SDS011;3896;48.758;8.888;2022-07-29T15:49:33;5.63;;;3.50;;
7707;SDS011;3896;48.758;8.888;2022-07-29T15:52:01;3.23;;;2.63;;
7707;SDS011;3896;48.758;8.888;2022-07-29T15:54:28;3.33;;;3.13;;
7707;SDS011;3896;48.758;8.888;2022-07-29T15:56:54;6.20;;;3.30;;
7707;SDS011;3896;48.758;8.888;2022-07-29T15:59:21;4.03;;;3.63;;
7707;SDS011;3896;48.758;8.888;2022-07-29T16:01:47;3.90;;;3.60;;
7707;SDS011;3896;48.758;8.888;2022-07-29T16:04:14;3.60;;;3.30;;
7707;SDS011;3896;48.758;8.888;2022-07-29T16:06:40;3.67;;;3.37;;
7707;SDS011;3896;48.758;8.888;2022-07-29T16:09:06;5.07;;;3.80;;
7707;SDS011;3896;48.758;8.888;2022-07-29T16:11:31;3.53;;;3.23;;